Time;durP1;ratioP1;P1;durP2;ratioP2;P2;SDS_P1;SDS_P2;PMS_P1;PMS_P2;Temp;Humidity;BMP_temperature;BMP_pressure;BME280_temperature;BME280_humidity;BME280_pressure;Samples;Min_cycle;Max_cycle;Signal;HPM_P1;HPM_P2
2022/04/28 00:00:50;;;;;;;;;37.50;32.25;;;;;13.33;51.73;101799.19;5054714;28;45807;-64
2022/04/28 00:03:15;;;;;;;;;30.75;29.50;;;;;13.26;52.50;101793.25;5056057;28;45226;-60
2022/04/28 00:05:41;;;;;;;;;38.25;34.25;;;;;13.16;52.04;101789.28;5056922;28;45581;-64
2022/04/28 00:08:08;;;;;;;;;35.25;30.00;;;;;13.18;51.55;101795.41;5055324;28;46223;-52
2022/04/28 00:10:35;;;;;;;;;32.75;32.75;;;;;13.03;52.17;101788.13;5058347;28;45436;-69
2022/04/28 00:13:01;;;;;;;;;38.50;35.25;;;;;13.09;52.82;101811.84;5056240;27;45390;-62
2022/04/28 00:15:30;;;;;;;;;31.75;28.25;;;;;12.97;52.78;101794.59;5047883;28;45575;-67
2022/04/28 00:17:56;;;;;;;;;29.00;27.75;;;;;12.95;52.80;101809.84;5052041;28;46914;-71
2022/04/28 00:20:22;;;;;;;;;35.00;32.50;;;;;12.88;52.91;101801.22;5054379;27;45320;-62
2022/04/28 00:22:48;;;;;;;;;35.75;29.50;;;;;12.91;52.81;101808.25;5055937;28;45480;-62
2022/04/28 00:25:14;;;;;;;;;35.25;34.75;;;;;12.89;53.01;101805.66;5056730;27;45258;-67
2022/04/28 00:27:39;;;;;;;;;36.00;33.00;;;;;12.81;52.83;101804.28;5055774;28;46176;-61
2022/04/28 00:30:07;;;;;;;;;36.75;34.75;;;;;12.82;53.22;101809.53;5074644;28;45432;-58
2022/04/28 00:32:32;;;;;;;;;30.75;30.50;;;;;12.81;53.37;101797.13;5057590;28;46634;-68
2022/04/28 00:34:58;;;;;;;;;35.75;29.75;;;;;12.76;53.26;101800.94;5055407;28;45557;-65
2022/04/28 00:37:24;;;;;;;;;40.25;35.00;;;;;12.68;53.36;101790.63;5054550;28;45424;-63
2022/04/28 00:39:50;;;;;;;;;36.00;32.50;;;;;12.70;53.15;101794.94;5055290;28;45511;-59
2022/04/28 00:42:17;;;;;;;;;40.00;36.00;;;;;12.73;53.29;101799.28;5054134;28;45341;-70
2022/04/28 00:44:43;;;;;;;;;33.25;27.50;;;;;12.68;53.00;101798.63;5065366;27;45608;-61
2022/04/28 00:47:10;;;;;;;;;39.75;36.50;;;;;12.64;53.57;101795.25;5058768;27;46022;-62
2022/04/28 00:52:22;;;;;;;;;34.25;31.00;;;;;12.60;53.42;101804.28;5049261;28;45460;-65
2022/04/28 00:54:50;;;;;;;;;38.25;33.00;;;;;12.55;53.29;101792.13;5054407;27;45253;-60
2022/04/28 00:57:18;;;;;;;;;42.25;37.00;;;;;12.54;54.01;101801.06;5055167;28;45374;-64
2022/04/28 00:59:47;;;;;;;;;38.50;34.25;;;;;12.51;53.75;101795.88;5056861;28;45471;-66
2022/04/28 01:02:13;;;;;;;;;36.25;34.75;;;;;12.52;53.96;101794.94;5057315;28;45638;-62
2022/04/28 01:04:39;;;;;;;;;36.25;30.75;;;;;12.46;53.99;101795.19;5058853;27;45338;-71
2022/04/28 01:07:06;;;;;;;;;36.00;35.75;;;;;12.39;54.08;101795.47;5057960;28;45499;-65
2022/04/28 01:09:36;;;;;;;;;39.25;32.50;;;;;12.38;53.94;101788.41;5056821;27;45432;-67
2022/04/28 01:12:15;;;;;;;;;36.75;32.50;;;;;12.34;54.38;101793.91;5056727;28;45485;-57
2022/04/28 01:14:45;;;;;;;;;36.00;33.00;;;;;12.31;54.44;101802.94;5056567;27;45529;-67
2022/04/28 01:17:12;;;;;;;;;39.25;30.75;;;;;12.23;54.54;101789.06;5056895;28;45465;-63
2022/04/28 01:19:39;;;;;;;;;34.75;31.75;;;;;12.29;54.30;101794.13;5058337;28;45473;-70
2022/04/28 01:22:05;;;;;;;;;30.75;28.75;;;;;12.21;54.78;101796.25;5058315;28;45469;-66
2022/04/28 01:24:31;;;;;;;;;37.00;34.75;;;;;12.13;54.71;101782.41;5058118;27;45675;-57
2022/04/28 01:26:59;;;;;;;;;39.75;35.50;;;;;12.08;54.84;101789.72;5054404;27;47734;-59
2022/04/28 01:29:25;;;;;;;;;26.25;25.00;;;;;12.02;55.34;101784.69;5055587;27;45370;-62
2022/04/28 01:31:50;;;;;;;;;32.75;29.75;;;;;11.99;55.15;101796.34;5057470;28;45366;-60
2022/04/28 01:34:17;;;;;;;;;42.25;34.50;;;;;12.00;55.38;101794.53;5057143;28;45502;-60
2022/04/28 01:36:42;;;;;;;;;37.25;32.50;;;;;11.99;55.62;101787.47;5056754;28;46142;-54
2022/04/28 01:39:09;;;;;;;;;34.50;31.75;;;;;11.98;55.33;101788.38;5056163;28;45421;-59
2022/04/28 01:41:35;;;;;;;;;34.25;31.75;;;;;11.90;55.36;101779.88;5060033;28;45493;-65
2022/04/28 01:44:01;;;;;;;;;30.75;26.75;;;;;11.94;55.11;101784.13;5058448;27;45201;-65
2022/04/28 01:46:28;;;;;;;;;30.50;26.75;;;;;11.94;56.17;101789.47;5054863;28;47229;-54
2022/04/28 01:48:53;;;;;;;;;31.75;26.50;;;;;11.79;55.43;101781.19;5071767;27;45550;-57
2022/04/28 01:56:46;;;;;;;;;30.75;29.25;;;;;11.72;56.14;101790.34;5057994;28;45409;-58
2022/04/28 01:59:12;;;;;;;;;36.75;30.00;;;;;11.73;56.12;101794.75;5054972;28;45400;-59
2022/04/28 02:01:38;;;;;;;;;28.75;26.75;;;;;11.64;56.00;101789.78;5056426;28;45331;-60
2022/04/28 02:04:04;;;;;;;;;28.00;28.00;;;;;11.59;56.36;101791.78;5058762;27;45405;-65
2022/04/28 02:06:29;;;;;;;;;34.50;31.25;;;;;11.59;56.28;101791.78;5056771;27;46235;-60
2022/04/28 02:08:55;;;;;;;;;35.75;33.50;;;;;11.42;56.58;101786.25;5060533;28;45529;-67
2022/04/28 02:11:21;;;;;;;;;24.50;22.25;;;;;11.45;56.88;101799.44;5072306;27;45476;-56
2022/04/28 02:13:46;;;;;;;;;34.00;30.25;;;;;11.39;56.56;101787.25;5058728;28;45380;-72
2022/04/28 02:16:12;;;;;;;;;36.75;27.25;;;;;11.39;57.32;101794.38;5056443;27;45589;-66
2022/04/28 02:18:37;;;;;;;;;30.75;27.00;;;;;11.40;56.87;101806.78;5057879;28;45460;-67
2022/04/28 02:21:03;;;;;;;;;28.75;28.75;;;;;11.33;57.57;101789.28;5055909;28;45627;-67
2022/04/28 02:23:28;;;;;;;;;33.00;26.50;;;;;11.30;57.47;101800.06;5060471;28;45408;-59
2022/04/28 02:25:54;;;;;;;;;37.25;28.50;;;;;11.22;57.67;101792.41;5057608;28;45418;-60
2022/04/28 02:28:20;;;;;;;;;33.00;28.75;;;;;11.28;57.07;101801.94;5057851;28;45357;-57
2022/04/28 02:30:45;;;;;;;;;31.75;28.25;;;;;11.26;57.61;101811.78;5057303;28;45187;-58
2022/04/28 02:33:11;;;;;;;;;33.50;30.50;;;;;11.20;57.18;101802.25;5055102;28;45446;-63
2022/04/28 02:35:40;;;;;;;;;28.50;28.50;;;;;11.18;57.37;101802.28;5057881;28;45469;-62
2022/04/28 02:38:06;;;;;;;;;34.50;29.25;;;;;11.19;56.92;101809.34;5056250;27;45515;-64
2022/04/28 02:40:32;;;;;;;;;40.00;31.50;;;;;11.13;57.89;101803.41;5073613;27;45507;-64
2022/04/28 02:42:59;;;;;;;;;32.75;30.75;;;;;11.10;57.27;101803.53;5062724;27;45545;-61
2022/04/28 02:45:25;;;;;;;;;32.50;26.00;;;;;11.04;57.71;101809.94;5057958;27;46868;-70
2022/04/28 02:47:50;;;;;;;;;34.75;27.50;;;;;11.10;57.63;101820.38;5072686;27;45672;-67
2022/04/28 02:50:16;;;;;;;;;37.00;32.25;;;;;11.03;57.28;101807.34;5056127;28;45287;-59
2022/04/28 02:52:41;;;;;;;;;38.50;30.00;;;;;10.93;58.16;101806.81;5056046;28;45605;-54
2022/04/28 02:55:08;;;;;;;;;35.00;28.00;;;;;11.00;57.98;101818.13;5057154;28;45480;-61
2022/04/28 02:57:34;;;;;;;;;27.75;24.50;;;;;11.00;58.86;101816.31;5050984;28;45691;-58
2022/04/28 03:00:01;;;;;;;;;32.25;31.25;;;;;11.01;57.96;101819.84;5055167;28;45240;-60
2022/04/28 03:02:26;;;;;;;;;28.00;27.00;;;;;10.96;57.62;101817.38;5054031;28;45561;-59
2022/04/28 03:04:52;;;;;;;;;32.75;28.00;;;;;11.03;57.81;101832.16;5056091;28;46414;-57
2022/04/28 03:12:47;;;;;;;;;25.25;20.75;;;;;10.87;58.19;101823.03;5056432;28;45441;-63
2022/04/28 03:15:12;;;;;;;;;31.00;26.50;;;;;10.92;57.64;101824.59;5061970;28;45463;-66
2022/04/28 03:17:38;;;;;;;;;31.00;26.50;;;;;10.84;59.19;101824.03;5055376;28;45456;-64
2022/04/28 03:20:04;;;;;;;;;18.75;18.00;;;;;10.80;58.08;101829.50;5056428;28;45483;-60
2022/04/28 03:22:30;;;;;;;;;30.75;28.75;;;;;10.82;58.77;101830.34;5058649;27;45686;-62
2022/04/28 03:24:56;;;;;;;;;29.25;21.75;;;;;10.82;58.73;101833.00;5055000;28;45524;-61
2022/04/28 03:27:22;;;;;;;;;33.00;25.50;;;;;10.75;58.48;101824.34;5055025;28;45345;-62
2022/04/28 03:29:47;;;;;;;;;47.00;33.25;;;;;10.72;59.09;101823.63;5056181;28;45615;-57
2022/04/28 03:32:13;;;;;;;;;40.75;30.50;;;;;10.69;59.50;101815.75;5055573;28;45426;-63
2022/04/28 03:34:39;;;;;;;;;36.50;28.50;;;;;10.71;59.20;101832.53;5056488;27;45519;-62
2022/04/28 03:37:04;;;;;;;;;34.75;32.00;;;;;10.68;59.00;101828.19;5054755;28;45214;-63
2022/04/28 03:39:30;;;;;;;;;39.75;29.50;;;;;10.67;58.63;101830.88;5054491;28;45420;-63
2022/04/28 03:41:56;;;;;;;;;26.75;25.75;;;;;10.64;59.62;101842.50;5056797;27;45491;-62
2022/04/28 03:44:21;;;;;;;;;35.50;31.00;;;;;10.55;58.48;101822.44;5055552;28;45496;-67
2022/04/28 03:46:47;;;;;;;;;31.00;25.25;;;;;10.61;58.82;101822.22;5067727;28;47084;-64
2022/04/28 03:49:13;;;;;;;;;34.00;27.25;;;;;10.56;59.57;101826.84;5058249;27;45977;-62
2022/04/28 03:51:39;;;;;;;;;30.00;28.50;;;;;10.57;59.88;101833.91;5055212;28;45586;-64
2022/04/28 03:54:05;;;;;;;;;37.25;31.00;;;;;10.49;59.71;101820.00;5056673;27;45388;-70
2022/04/28 03:56:32;;;;;;;;;41.25;34.00;;;;;10.51;60.02;101836.75;5041522;28;45492;-63
2022/04/28 03:58:59;;;;;;;;;40.00;32.00;;;;;10.52;58.99;101841.16;5056379;28;45371;-66
2022/04/28 04:01:25;;;;;;;;;40.50;33.00;;;;;10.44;59.29;101824.63;5056308;27;45644;-61
2022/04/28 04:03:51;;;;;;;;;40.25;28.75;;;;;10.49;60.34;101837.75;5057982;28;46153;-62
2022/04/28 04:06:16;;;;;;;;;25.75;22.25;;;;;10.40;60.06;101830.94;5053813;27;45586;-69
2022/04/28 04:08:42;;;;;;;;;36.25;33.50;;;;;10.44;59.67;101843.25;5055238;28;45373;-64
2022/04/28 04:11:08;;;;;;;;;31.50;28.25;;;;;10.41;60.34;101838.00;5054438;28;45500;-59
2022/04/28 04:13:34;;;;;;;;;38.75;31.25;;;;;10.43;59.84;101844.16;5057158;27;45512;-55
2022/04/28 04:16:00;;;;;;;;;35.50;30.75;;;;;10.38;59.65;101835.47;5043428;27;45531;-65
2022/04/28 04:18:25;;;;;;;;;31.00;28.25;;;;;10.34;59.84;101832.06;5055336;28;45528;-63
2022/04/28 04:20:51;;;;;;;;;32.75;28.75;;;;;10.32;60.36;101843.66;5059460;28;45568;-65
2022/04/28 04:23:16;;;;;;;;;39.50;33.75;;;;;10.31;59.91;101847.25;5067761;27;46298;-65
2022/04/28 04:25:43;;;;;;;;;36.00;33.75;;;;;10.29;61.48;101851.75;5053860;28;45469;-61
2022/04/28 04:28:09;;;;;;;;;39.50;30.00;;;;;10.29;60.25;101847.31;5053384;28;45445;-69
2022/04/28 04:33:19;;;;;;;;;41.50;35.75;;;;;10.28;60.01;101852.66;5054432;28;45243;-64
2022/04/28 04:35:45;;;;;;;;;44.00;36.50;;;;;10.23;60.47;101846.63;5054879;28;45313;-62
2022/04/28 04:38:10;;;;;;;;;39.00;32.25;;;;;10.27;60.21;101858.91;5050894;27;45561;-61
2022/04/28 04:40:36;;;;;;;;;38.50;35.00;;;;;10.26;61.07;101867.78;5053630;27;45537;-68
2022/04/28 04:43:03;;;;;;;;;37.50;35.50;;;;;10.21;61.50;101869.72;5068786;27;46525;-69
2022/04/28 04:45:29;;;;;;;;;36.25;33.50;;;;;10.23;61.69;101870.56;5055800;28;45281;-56
2022/04/28 04:47:54;;;;;;;;;39.50;30.75;;;;;10.17;60.94;101852.16;5038505;28;45365;-58
2022/04/28 04:50:20;;;;;;;;;45.00;37.50;;;;;10.24;60.70;101859.88;5056215;28;45566;-59
2022/04/28 04:52:45;;;;;;;;;42.75;37.75;;;;;10.23;61.43;101862.59;5054956;27;45276;-62
2022/04/28 04:55:16;;;;;;;;;44.75;38.75;;;;;10.18;61.55;101856.53;5055859;28;45274;-63
2022/04/28 04:57:41;;;;;;;;;38.25;32.75;;;;;10.18;60.49;101867.19;5086253;27;45482;-64
2022/04/28 05:00:07;;;;;;;;;36.25;30.50;;;;;10.19;60.26;101867.13;5056523;28;45555;-69
2022/04/28 05:02:33;;;;;;;;;37.50;33.00;;;;;10.22;60.72;101868.84;5055079;27;46476;-56
2022/04/28 05:04:58;;;;;;;;;41.00;34.50;;;;;10.19;62.13;101874.22;5053042;27;45409;-69
2022/04/28 05:07:30;;;;;;;;;48.00;35.00;;;;;10.17;61.04;101871.63;5055498;28;45634;-68
2022/04/28 05:09:55;;;;;;;;;37.00;33.50;;;;;10.17;61.89;101879.59;5054909;28;45390;-65
2022/04/28 05:12:21;;;;;;;;;44.75;37.50;;;;;10.18;60.82;101877.81;5054671;28;45524;-63
2022/04/28 05:14:46;;;;;;;;;34.25;33.75;;;;;10.22;60.94;101883.00;5054848;27;45396;-63
2022/04/28 05:17:11;;;;;;;;;47.25;37.00;;;;;10.17;60.54;101863.66;5053385;28;45421;-64
2022/04/28 05:19:37;;;;;;;;;36.50;35.00;;;;;10.22;61.14;101884.78;5053964;28;45464;-63
2022/04/28 05:22:02;;;;;;;;;50.50;37.75;;;;;10.26;60.54;101889.06;5057109;27;46913;-65
2022/04/28 05:24:28;;;;;;;;;44.25;37.25;;;;;10.17;61.78;101879.59;5054410;27;45484;-68
2022/04/28 05:26:53;;;;;;;;;41.25;35.00;;;;;10.23;61.69;101895.38;5051618;27;45464;-63
2022/04/28 05:29:19;;;;;;;;;40.50;35.00;;;;;10.22;61.44;101898.94;5054328;28;45632;-66
2022/04/28 05:31:44;;;;;;;;;33.25;31.00;;;;;10.25;61.52;101905.94;5053207;28;46633;-63
2022/04/28 05:34:09;;;;;;;;;40.00;35.25;;;;;10.31;60.43;101914.59;5048015;28;45599;-64
2022/04/28 05:36:37;;;;;;;;;40.25;37.50;;;;;10.33;60.76;101912.75;5053563;28;45468;-60
2022/04/28 05:39:03;;;;;;;;;42.50;35.00;;;;;10.30;61.83;101928.81;5051439;28;45485;-62
2022/04/28 05:41:29;;;;;;;;;40.00;35.75;;;;;10.31;61.04;101911.06;5053280;28;46284;-60
2022/04/28 05:46:39;;;;;;;;;44.50;38.00;;;;;10.35;60.72;101915.34;5053190;28;45450;-63
2022/04/28 05:49:05;;;;;;;;;44.00;38.50;;;;;10.38;61.37;101920.56;5061274;28;45669;-64
2022/04/28 05:51:31;;;;;;;;;44.25;38.50;;;;;10.34;60.22;101918.94;5056618;27;45379;-61
2022/04/28 05:53:57;;;;;;;;;42.75;36.75;;;;;10.45;60.81;101923.91;5058057;28;45552;-63
2022/04/28 05:56:22;;;;;;;;;47.00;37.25;;;;;10.39;61.31;101930.28;5073606;27;45286;-67
2022/04/28 05:58:48;;;;;;;;;40.25;37.50;;;;;10.44;61.40;101928.34;5040361;28;45537;-66
2022/04/28 06:01:14;;;;;;;;;36.00;35.75;;;;;10.46;60.25;101929.16;5056772;27;48278;-66
2022/04/28 06:03:41;;;;;;;;;43.50;37.50;;;;;10.52;61.16;101934.25;5058048;28;45367;-67
2022/04/28 06:06:06;;;;;;;;;43.25;34.50;;;;;10.48;60.25;101918.47;5058419;28;45287;-61
2022/04/28 06:08:32;;;;;;;;;44.75;39.25;;;;;10.57;60.53;101929.66;5069632;28;45476;-63
2022/04/28 06:10:58;;;;;;;;;32.25;28.50;;;;;10.48;60.38;101914.00;5074786;27;46282;-65
2022/04/28 06:13:24;;;;;;;;;39.25;35.25;;;;;10.62;59.85;101935.69;5057367;28;45290;-61
2022/04/28 06:15:50;;;;;;;;;45.50;37.25;;;;;10.69;60.05;101940.81;5057311;27;45388;-61
2022/04/28 06:18:15;;;;;;;;;42.25;37.50;;;;;10.75;60.35;101937.91;5055796;28;45348;-70
2022/04/28 06:20:41;;;;;;;;;46.00;41.00;;;;;10.80;59.63;101947.44;5049148;28;46078;-65
2022/04/28 06:23:06;;;;;;;;;43.00;40.25;;;;;10.81;60.89;101948.34;5062240;28;45448;-55
2022/04/28 06:25:32;;;;;;;;;44.50;37.00;;;;;10.89;60.01;101948.94;5053144;28;45568;-70
2022/04/28 06:27:58;;;;;;;;;41.75;38.50;;;;;10.95;60.05;101943.41;5055973;28;45471;-69
2022/04/28 06:30:23;;;;;;;;;47.25;38.50;;;;;10.93;60.45;101953.22;5056543;28;45950;-63
2022/04/28 06:32:49;;;;;;;;;53.00;40.75;;;;;10.99;59.93;101944.16;5056086;28;45520;-69
2022/04/28 06:35:15;;;;;;;;;50.50;40.75;;;;;11.04;60.18;101943.03;5064105;28;45306;-66
2022/04/28 06:37:41;;;;;;;;;48.75;37.25;;;;;11.15;59.70;101954.19;5075151;27;45499;-57
2022/04/28 06:40:07;;;;;;;;;56.50;43.50;;;;;11.22;59.21;101961.03;5057456;28;45282;-59
2022/04/28 06:42:33;;;;;;;;;44.75;36.25;;;;;11.28;58.55;101967.91;5054067;28;45395;-68
2022/04/28 06:44:58;;;;;;;;;46.00;40.25;;;;;11.32;59.15;101958.88;5054136;27;45489;-66
2022/04/28 06:47:23;;;;;;;;;40.25;36.75;;;;;11.40;59.19;101966.59;5069506;27;45613;-76
2022/04/28 06:49:49;;;;;;;;;46.75;40.00;;;;;11.33;58.57;101946.41;5077041;28;45305;-69
2022/04/28 06:52:14;;;;;;;;;52.50;40.00;;;;;11.49;58.85;101967.13;5065624;28;46782;-67
2022/04/28 06:54:40;;;;;;;;;44.75;37.00;;;;;11.35;58.80;101950.78;5052114;28;45475;-65
2022/04/28 06:57:06;;;;;;;;;37.75;36.25;;;;;11.43;58.78;101966.47;5055462;28;45554;-63
2022/04/28 06:59:31;;;;;;;;;40.50;38.25;;;;;11.46;59.05;101963.72;5056818;28;45557;-63
2022/04/28 07:01:57;;;;;;;;;44.75;37.75;;;;;11.61;58.72;101981.78;5056877;28;45401;-66
2022/04/28 07:04:22;;;;;;;;;40.75;38.25;;;;;11.67;58.67;101976.19;5057097;28;45630;-64
2022/04/28 07:06:48;;;;;;;;;51.25;43.25;;;;;11.73;58.45;101978.63;5057487;27;45314;-60
2022/04/28 07:09:13;;;;;;;;;48.00;35.75;;;;;11.82;58.15;101975.63;5056900;28;46218;-60
2022/04/28 07:11:39;;;;;;;;;49.00;40.25;;;;;11.88;58.24;101981.66;5056575;28;45572;-62
2022/04/28 07:14:04;;;;;;;;;40.75;34.25;;;;;11.84;58.49;101972.91;5057204;28;45361;-63
2022/04/28 07:16:30;;;;;;;;;52.25;42.25;;;;;11.98;58.03;101980.34;5055757;28;45654;-65
2022/04/28 07:18:55;;;;;;;;;47.75;41.50;;;;;12.07;57.69;101971.97;5056443;28;47740;-60
2022/04/28 07:21:21;;;;;;;;;43.00;37.75;;;;;12.19;57.64;101974.16;5055942;28;46852;-64
2022/04/28 07:23:46;;;;;;;;;38.75;31.75;;;;;12.27;57.59;101976.53;5054339;28;45542;-61
2022/04/28 07:26:12;;;;;;;;;50.50;39.50;;;;;12.33;57.48;101977.13;5056054;27;45551;-62
2022/04/28 07:28:40;;;;;;;;;45.00;41.00;;;;;12.43;56.88;101972.28;5052410;28;46749;-59
2022/04/28 07:31:06;;;;;;;;;54.00;42.50;;;;;12.51;56.53;101975.50;5057717;28;45636;-64
2022/04/28 07:33:33;;;;;;;;;40.25;36.00;;;;;12.47;56.48;101957.00;5082683;27;45517;-63
2022/04/28 07:35:58;;;;;;;;;54.00;42.75;;;;;12.66;56.43;101972.19;5058935;27;46710;-57
2022/04/28 07:38:24;;;;;;;;;47.50;40.75;;;;;12.75;56.48;101978.03;5055658;28;45507;-60
2022/04/28 07:40:51;;;;;;;;;55.50;44.75;;;;;12.69;56.48;101963.16;5057046;28;45392;-65
2022/04/28 07:43:17;;;;;;;;;50.00;41.75;;;;;12.94;56.33;101985.22;5056417;28;45434;-59
2022/04/28 07:45:43;;;;;;;;;50.25;41.25;;;;;13.05;55.83;101976.72;5056595;28;45647;-58
2022/04/28 07:48:08;;;;;;;;;51.25;42.00;;;;;13.21;55.66;101992.97;5057939;27;45275;-63
2022/04/28 07:50:34;;;;;;;;;43.75;35.50;;;;;13.34;55.35;101978.13;5055846;27;45523;-61
2022/04/28 07:53:03;;;;;;;;;57.50;42.00;;;;;13.42;55.17;101978.66;5054686;28;45427;-60
2022/04/28 07:55:28;;;;;;;;;51.25;40.50;;;;;13.56;54.50;101976.19;5056196;28;45398;-62
2022/04/28 07:57:54;;;;;;;;;53.75;43.50;;;;;13.65;54.11;101982.03;5068349;28;47465;-63
2022/04/28 08:00:20;;;;;;;;;54.75;41.00;;;;;13.77;53.53;101981.47;5072921;27;45323;-60
2022/04/28 08:02:45;;;;;;;;;57.00;43.50;;;;;13.88;53.89;101981.81;5060964;28;45447;-62
2022/04/28 08:05:11;;;;;;;;;41.75;37.00;;;;;14.05;52.75;101989.03;5073423;27;45807;-56
2022/04/28 08:07:36;;;;;;;;;47.25;39.00;;;;;14.20;52.62;101998.16;5057572;28;46353;-56
2022/04/28 08:10:04;;;;;;;;;44.75;39.25;;;;;14.28;52.59;101995.94;5048400;28;45280;-53
2022/04/28 08:12:29;;;;;;;;;39.75;37.75;;;;;14.37;53.19;101995.50;5048763;28;45318;-60
2022/04/28 08:14:55;;;;;;;;;51.00;37.50;;;;;14.47;52.13;101983.44;5072615;27;45356;-61
2022/04/28 08:17:20;;;;;;;;;44.00;37.50;;;;;14.60;51.37;101987.22;5075510;27;45523;-58
2022/04/28 08:19:46;;;;;;;;;44.75;39.50;;;;;14.62;51.61;101974.63;5071404;27;45854;-63
2022/04/28 08:22:11;;;;;;;;;48.25;39.00;;;;;14.73;51.18;101991.00;5055555;28;45424;-58
2022/04/28 08:24:37;;;;;;;;;44.00;37.25;;;;;14.90;51.21;101987.44;5048996;28;45506;-54
2022/04/28 08:27:03;;;;;;;;;42.50;35.00;;;;;14.94;50.43;101970.25;5058260;28;45492;-61
2022/04/28 08:29:29;;;;;;;;;30.00;25.50;;;;;15.29;50.26;101983.63;5060525;27;45430;-57
2022/04/28 08:31:54;;;;;;;;;44.75;39.00;;;;;15.59;49.71;101986.44;5055599;28;45421;-60
2022/04/28 08:34:22;;;;;;;;;45.00;38.50;;;;;15.89;49.04;101990.16;5076615;28;45634;-59
2022/04/28 08:36:48;;;;;;;;;42.75;34.75;;;;;16.34;48.23;101985.78;5068655;28;47149;-54
2022/04/28 08:39:15;;;;;;;;;46.25;39.00;;;;;16.78;46.76;101985.88;5045591;28;45710;-54
2022/04/28 08:41:45;;;;;;;;;40.00;33.33;;;;;17.18;46.42;101985.25;5056029;27;45192;-59
2022/04/28 08:44:16;;;;;;;;;34.33;33.00;;;;;17.48;45.23;101990.59;5060098;27;45386;-59
2022/04/28 08:46:50;;;;;;;;;35.67;33.33;;;;;17.71;44.17;101986.44;5072623;27;46315;-63
2022/04/28 08:49:30;;;;;;;;;38.00;31.33;;;;;17.93;43.90;101981.41;5055338;28;45497;-57
2022/04/28 08:51:57;;;;;;;;;40.67;35.00;;;;;18.06;44.80;101987.72;5053803;28;45496;-60
2022/04/28 08:54:25;;;;;;;;;39.67;36.00;;;;;18.22;43.97;101987.59;5055833;28;45488;-60
2022/04/28 08:56:52;;;;;;;;;32.00;31.67;;;;;18.41;42.77;101979.16;5053990;28;45358;-61
2022/04/28 08:59:22;;;;;;;;;35.33;32.67;;;;;18.54;43.47;101972.84;5055102;27;45467;-62
2022/04/28 09:01:48;;;;;;;;;35.00;33.00;;;;;18.64;43.85;101956.09;5054151;28;45315;-60
2022/04/28 09:04:13;;;;;;;;;36.67;32.00;;;;;18.84;42.57;101966.34;5053508;28;45448;-58
2022/04/28 09:06:41;;;;;;;;;35.33;30.00;;;;;18.89;42.63;101969.63;5053431;28;45361;-56
2022/04/28 09:09:11;;;;;;;;;54.00;43.75;;;;;19.05;42.83;101972.97;5055328;28;45458;-55
2022/04/28 09:11:39;;;;;;;;;38.33;34.33;;;;;19.19;41.27;101969.28;5063121;28;45482;-58
2022/04/28 09:14:15;;;;;;;;;28.67;28.67;;;;;19.26;41.34;101970.56;5059788;27;45332;-65
2022/04/28 09:17:03;;;;;;;;;34.67;31.67;;;;;19.32;41.36;101963.91;5053912;27;46253;-65
2022/04/28 09:19:40;;;;;;;;;34.00;32.00;;;;;19.27;40.21;101956.16;5055288;27;45506;-62
2022/04/28 09:22:13;;;;;;;;;38.00;33.33;;;;;19.38;41.30;101948.13;5059076;27;45385;-50
2022/04/28 09:24:46;;;;;;;;;33.00;31.00;;;;;19.59;40.49;101961.09;5074054;27;45345;-50
2022/04/28 09:27:13;;;;;;;;;35.00;32.00;;;;;19.65;39.60;101952.53;5060212;27;45431;-54
2022/04/28 09:29:43;;;;;;;;;35.33;29.00;;;;;19.88;40.80;101948.16;5058297;27;45456;-54
2022/04/28 09:32:11;;;;;;;;;34.00;32.00;;;;;20.09;39.17;101948.41;5072545;27;45522;-59
2022/04/28 09:34:48;;;;;;;;;40.67;32.33;;;;;20.25;40.15;101940.88;5074408;27;45682;-57
2022/04/28 09:37:20;;;;;;;;;31.00;31.00;;;;;20.46;40.70;101944.69;5042195;27;45472;-62
2022/04/28 09:42:39;;;;;;;;;33.67;30.67;;;;;21.02;39.15;101944.84;5056473;28;45445;-58
2022/04/28 09:45:06;;;;;;;;;23.00;21.67;;;;;21.31;36.89;101944.41;5056586;27;45595;-60
2022/04/28 09:47:32;;;;;;;;;31.00;27.00;;;;;21.52;37.58;101942.69;5073545;28;47806;-58
2022/04/28 09:49:58;;;;;;;;;26.00;23.00;;;;;21.85;36.14;101938.19;5058392;28;45409;-61
2022/04/28 09:52:24;;;;;;;;;24.67;24.67;;;;;22.02;37.05;101929.56;5058108;28;45427;-61
2022/04/28 09:54:51;;;;;;;;;30.67;29.33;;;;;22.11;35.45;101936.06;5058405;28;45537;-61
2022/04/28 09:57:20;;;;;;;;;25.33;24.33;;;;;22.00;36.26;101926.09;5074145;27;46357;-59
2022/04/28 09:59:47;;;;;;;;;25.00;23.67;;;;;21.95;34.48;101929.19;5058144;27;45282;-58
2022/04/28 10:02:18;;;;;;;;;27.00;24.67;;;;;21.89;36.49;101935.13;5058083;28;45377;-59
2022/04/28 10:04:45;;;;;;;;;28.00;25.33;;;;;21.91;35.03;101924.16;5058077;28;45301;-59
2022/04/28 10:07:13;;;;;;;;;26.67;26.67;;;;;21.95;36.02;101920.19;5073632;28;45276;-59
2022/04/28 10:09:40;;;;;;;;;18.00;18.00;;;;;22.03;34.72;101925.84;5057971;28;45507;-60
2022/04/28 10:12:07;;;;;;;;;26.33;25.00;;;;;22.00;36.18;101909.84;5056755;28;45421;-60
2022/04/28 10:14:40;;;;;;;;;24.67;24.67;;;;;21.92;36.09;101915.03;5057805;28;45509;-57
2022/04/28 10:17:11;;;;;;;;;27.00;24.33;;;;;21.86;36.20;101910.13;5058011;28;45435;-58
2022/04/28 10:19:42;;;;;;;;;27.33;22.67;;;;;21.72;35.03;101925.66;5057972;27;45368;-62
2022/04/28 10:22:13;;;;;;;;;22.33;21.33;;;;;21.63;35.05;101918.31;5058078;28;45376;-54
2022/04/28 10:33:10;;;;;;;;;21.00;20.00;;;;;21.21;34.65;101918.03;5058548;28;45455;-59
2022/04/28 10:35:38;;;;;;;;;19.67;19.67;;;;;21.14;35.85;101910.56;5058461;28;45250;-57
2022/04/28 10:38:08;;;;;;;;;24.00;19.67;;;;;21.11;35.55;101895.44;5057558;28;46019;-57
2022/04/28 10:40:39;;;;;;;;;21.00;18.00;;;;;21.19;35.55;101897.50;5057982;28;45339;-53
2022/04/28 10:43:18;;;;;;;;;25.33;22.00;;;;;21.15;35.68;101885.22;5056779;28;45426;-58
2022/04/28 10:45:45;;;;;;;;;20.00;18.00;;;;;21.15;35.48;101896.91;5056575;28;45506;-61
2022/04/28 10:48:26;;;;;;;;;22.67;21.33;;;;;21.15;35.92;101901.44;5057518;28;47000;-61
2022/04/28 10:51:22;;;;;;;;;23.67;19.33;;;;;21.17;35.05;101900.34;5056878;28;45556;-58
2022/04/28 10:54:19;;;;;;;;;18.33;17.00;;;;;21.23;34.37;101887.31;5071456;28;45373;-61
2022/04/28 10:56:45;;;;;;;;;17.00;14.00;;;;;21.21;34.51;101896.38;5057319;28;45262;-56
2022/04/28 10:59:37;;;;;;;;;17.00;16.00;;;;;21.19;33.75;101881.28;5072506;27;46068;-61
2022/04/28 11:02:15;;;;;;;;;18.00;15.33;;;;;21.29;34.54;101903.06;5054733;28;45526;-58
2022/04/28 11:04:48;;;;;;;;;14.67;13.67;;;;;21.27;34.12;101888.81;5057277;28;45374;-56
2022/04/28 11:07:20;;;;;;;;;18.67;17.67;;;;;21.27;33.86;101894.22;5057516;28;45289;-62
2022/04/28 11:10:07;;;;;;;;;21.00;18.67;;;;;21.30;33.55;101893.97;5057170;27;45473;-60
2022/04/28 11:12:38;;;;;;;;;16.33;15.00;;;;;21.32;33.86;101892.00;5055571;28;45434;-57
2022/04/28 11:15:06;;;;;;;;;17.33;14.00;;;;;21.35;32.77;101867.38;5057085;28;45399;-57
2022/04/28 11:17:35;;;;;;;;;12.33;12.33;;;;;21.51;32.07;101891.38;5057052;28;45303;-57
2022/04/28 11:20:12;;;;;;;;;15.33;14.33;;;;;21.68;33.20;101894.41;5056611;28;45301;-58
2022/04/28 11:22:42;;;;;;;;;14.67;14.67;;;;;21.84;32.32;101898.56;5057244;28;45418;-61
2022/04/28 11:25:12;;;;;;;;;20.00;17.00;;;;;21.86;32.06;101891.16;5057091;27;45273;-58
2022/04/28 11:27:38;;;;;;;;;23.33;19.33;;;;;21.83;31.98;101892.28;5057397;28;45322;-58
2022/04/28 11:30:04;;;;;;;;;11.67;11.67;;;;;21.78;32.96;101889.97;5056649;28;45938;-58
2022/04/28 11:32:30;;;;;;;;;13.67;11.67;;;;;21.74;32.31;101893.91;5057009;28;45315;-57
2022/04/28 11:34:57;;;;;;;;;13.00;11.67;;;;;21.69;32.20;101890.72;5055765;28;45498;-61
2022/04/28 11:37:26;;;;;;;;;12.00;12.00;;;;;21.57;32.14;101889.03;5038729;28;45458;-59
2022/04/28 11:39:53;;;;;;;;;11.67;11.67;;;;;21.62;32.90;101900.34;5036506;28;46338;-59